Time;durP1;ratioP1;P1;durP2;ratioP2;P2;SDS_P1;SDS_P2;PMS_P1;PMS_P2;Temp;Humidity;BMP_temperature;BMP_pressure;BME280_temperature;BME280_humidity;BME280_pressure;Samples;Min_cycle;Max_cycle;Signal;HPM_P1;HPM_P2
2022/07/18 00:00:09;;;;;;;1.50;1.10;;;25.70;36.40;;;;;;5011345;28;20053;-57
2022/07/18 00:02:34;;;;;;;1.55;1.08;;;25.70;37.10;;;;;;5010854;28;20026;-55
2022/07/18 00:05:00;;;;;;;1.85;1.20;;;25.70;36.50;;;;;;5011873;28;20360;-54
2022/07/18 00:07:26;;;;;;;1.67;1.13;;;25.60;36.40;;;;;;5010388;28;20022;-58
2022/07/18 00:09:52;;;;;;;1.65;1.35;;;25.70;36.40;;;;;;5009113;28;20034;-56
2022/07/18 00:12:18;;;;;;;1.75;1.20;;;25.60;36.40;;;;;;5010928;28;20050;-55
2022/07/18 00:14:44;;;;;;;1.50;1.25;;;25.60;36.40;;;;;;5011878;28;20030;-56
2022/07/18 00:17:10;;;;;;;2.30;1.20;;;25.60;36.40;;;;;;5010406;28;20026;-54
2022/07/18 00:19:37;;;;;;;1.58;1.02;;;25.60;36.40;;;;;;5011459;28;20045;-58
2022/07/18 00:22:04;;;;;;;1.33;1.00;;;25.60;36.40;;;;;;5010709;28;20143;-56
2022/07/18 00:24:31;;;;;;;1.48;1.20;;;25.60;36.50;;;;;;5009058;28;20445;-55
2022/07/18 00:26:58;;;;;;;1.77;1.20;;;25.60;36.50;;;;;;5010456;28;20421;-54
2022/07/18 00:29:24;;;;;;;1.20;0.95;;;25.60;36.50;;;;;;5011110;28;20050;-54
2022/07/18 00:31:49;;;;;;;1.25;1.00;;;25.60;36.40;;;;;;5010861;28;20464;-56
2022/07/18 00:34:15;;;;;;;1.80;1.17;;;25.60;36.50;;;;;;5010363;28;20373;-57
2022/07/18 00:36:41;;;;;;;1.63;1.35;;;25.60;36.40;;;;;;5011009;28;20084;-57
2022/07/18 00:39:07;;;;;;;1.10;1.00;;;25.60;36.50;;;;;;5007685;28;20407;-57
2022/07/18 00:41:32;;;;;;;1.48;1.20;;;25.60;36.50;;;;;;5009944;28;20058;-55
2022/07/18 00:43:58;;;;;;;1.80;1.13;;;25.60;36.50;;;;;;5010926;28;20026;-58
2022/07/18 00:46:26;;;;;;;2.50;1.35;;;25.50;36.40;;;;;;5011183;28;20104;-58
2022/07/18 00:48:53;;;;;;;1.52;1.08;;;25.60;36.50;;;;;;5009619;28;20402;-58
2022/07/18 00:51:19;;;;;;;1.65;1.20;;;25.50;36.40;;;;;;5010301;28;20057;-54
2022/07/18 00:53:47;;;;;;;1.25;1.02;;;25.50;36.40;;;;;;5007970;28;20108;-56
2022/07/18 00:56:17;;;;;;;2.15;1.30;;;25.50;36.40;;;;;;5010836;28;20025;-56
2022/07/18 00:58:43;;;;;;;2.45;1.25;;;25.50;36.40;;;;;;5008870;28;20748;-54
2022/07/18 01:03:55;;;;;;;;;;;25.50;36.40;;;;;;5008024;28;20035;-54
2022/07/18 01:06:21;;;;;;;2.17;1.10;;;25.50;36.40;;;;;;5010677;28;20399;-57
2022/07/18 01:08:47;;;;;;;1.80;1.00;;;25.50;36.50;;;;;;5010008;28;20049;-55
2022/07/18 01:11:13;;;;;;;1.35;1.10;;;25.50;36.50;;;;;;5008374;28;20033;-56
2022/07/18 01:13:40;;;;;;;1.73;1.10;;;25.40;36.40;;;;;;5010246;28;20045;-59
2022/07/18 01:16:06;;;;;;;1.70;1.00;;;25.50;36.40;;;;;;5010633;28;20049;-54
2022/07/18 01:18:32;;;;;;;1.60;1.30;;;25.50;36.40;;;;;;5010493;28;20373;-52
2022/07/18 01:20:58;;;;;;;1.58;1.08;;;25.50;36.40;;;;;;5009674;28;20041;-56
2022/07/18 01:23:24;;;;;;;1.60;1.25;;;25.40;36.30;;;;;;5008228;28;20026;-58
2022/07/18 01:25:50;;;;;;;2.22;1.20;;;25.50;36.40;;;;;;5009438;28;20029;-51
2022/07/18 01:28:16;;;;;;;1.42;0.90;;;25.40;36.30;;;;;;5010027;28;20045;-52
2022/07/18 01:30:42;;;;;;;1.65;1.17;;;25.40;36.30;;;;;;5010457;28;20034;-55
2022/07/18 01:33:08;;;;;;;1.20;1.10;;;25.40;36.30;;;;;;5007790;28;20111;-55
2022/07/18 01:35:34;;;;;;;1.60;1.30;;;25.40;36.30;;;;;;5010319;28;20030;-54
2022/07/18 01:38:02;;;;;;;1.15;0.93;;;25.40;36.30;;;;;;5012367;28;20038;-53
2022/07/18 01:40:28;;;;;;;1.50;1.20;;;25.40;36.30;;;;;;5012745;28;20053;-52
2022/07/18 01:42:54;;;;;;;1.15;0.82;;;25.40;36.30;;;;;;5013153;28;20923;-57
2022/07/18 01:45:20;;;;;;;2.17;1.25;;;25.40;36.30;;;;;;5014142;28;20026;-52
2022/07/18 01:47:46;;;;;;;1.80;1.42;;;25.40;36.30;;;;;;5013674;28;20096;-56
2022/07/18 01:50:13;;;;;;;1.30;1.02;;;25.40;36.30;;;;;;5012517;28;20046;-51
2022/07/18 01:52:39;;;;;;;1.50;1.10;;;25.40;36.30;;;;;;5013420;28;20042;-52
2022/07/18 01:55:07;;;;;;;1.60;1.20;;;25.40;36.30;;;;;;5012346;28;20022;-55
2022/07/18 01:57:33;;;;;;;1.60;1.20;;;25.40;36.30;;;;;;5012911;28;20041;-54
2022/07/18 01:59:59;;;;;;;1.30;1.10;;;25.40;36.30;;;;;;5013700;28;20026;-59
2022/07/18 02:02:25;;;;;;;2.13;1.58;;;25.40;36.30;;;;;;5012795;28;20040;-56
2022/07/18 02:04:59;;;;;;;1.38;1.10;;;25.40;36.30;;;;;;5009331;28;20022;-54
2022/07/18 02:07:35;;;;;;;1.20;1.10;;;25.40;36.30;;;;;;5012832;28;20044;-53
2022/07/18 02:10:06;;;;;;;1.30;1.20;;;25.40;36.30;;;;;;5011308;28;20030;-53
2022/07/18 02:12:31;;;;;;;1.35;1.15;;;25.40;36.30;;;;;;5012101;28;20050;-55
2022/07/18 02:14:57;;;;;;;1.88;1.38;;;25.30;36.30;;;;;;5012851;28;20026;-55
2022/07/18 02:17:23;;;;;;;1.52;1.25;;;25.30;36.30;;;;;;5013306;28;20025;-55
2022/07/18 02:19:49;;;;;;;1.73;1.33;;;25.40;36.30;;;;;;5013198;28;20425;-56
2022/07/18 02:22:15;;;;;;;1.77;1.30;;;25.30;36.30;;;;;;5013006;28;20124;-51
2022/07/18 02:24:41;;;;;;;2.05;1.30;;;25.40;36.40;;;;;;5013101;28;20077;-52
2022/07/18 02:27:07;;;;;;;1.40;1.10;;;25.30;36.30;;;;;;5011912;28;20033;-48
2022/07/18 02:29:33;;;;;;;1.45;1.23;;;25.40;36.40;;;;;;5013899;28;20103;-55
2022/07/18 02:31:59;;;;;;;1.50;1.20;;;25.30;36.30;;;;;;5012356;28;20026;-53
2022/07/18 02:34:25;;;;;;;2.35;1.50;;;25.30;36.30;;;;;;5011466;28;20352;-53
2022/07/18 02:36:51;;;;;;;1.80;1.30;;;25.30;36.40;;;;;;5013133;28;20495;-57
2022/07/18 02:39:17;;;;;;;1.65;1.30;;;25.30;36.40;;;;;;5013380;28;20045;-52
2022/07/18 02:41:44;;;;;;;1.52;1.20;;;25.30;36.40;;;;;;5012575;28;20365;-51
2022/07/18 02:44:10;;;;;;;1.30;0.95;;;25.30;36.40;;;;;;5011467;28;20029;-57
2022/07/18 02:46:36;;;;;;;1.10;0.93;;;25.30;36.40;;;;;;5012546;28;20022;-55
2022/07/18 02:49:02;;;;;;;1.27;1.17;;;25.30;36.40;;;;;;5011546;28;20076;-52
2022/07/18 02:51:28;;;;;;;1.10;1.00;;;25.30;36.40;;;;;;5012882;28;20022;-54
2022/07/18 02:53:54;;;;;;;1.85;1.35;;;25.30;36.40;;;;;;5011279;28;20057;-58
2022/07/18 02:56:20;;;;;;;2.25;1.60;;;25.30;36.40;;;;;;5012598;28;20049;-53
2022/07/18 02:58:46;;;;;;;2.00;1.30;;;25.30;37.10;;;;;;5012024;28;20038;-55
2022/07/18 03:01:12;;;;;;;2.58;1.52;;;25.30;36.50;;;;;;5012611;28;20092;-56
2022/07/18 03:03:38;;;;;;;1.48;1.20;;;25.30;36.50;;;;;;5012706;28;20490;-53
2022/07/18 03:06:04;;;;;;;2.35;1.30;;;25.30;36.50;;;;;;5011879;28;20025;-56
2022/07/18 03:08:30;;;;;;;1.58;1.23;;;25.30;36.50;;;;;;5008804;28;20072;-57
2022/07/18 03:10:56;;;;;;;1.85;1.30;;;25.30;36.60;;;;;;5011712;28;20073;-51
2022/07/18 03:13:22;;;;;;;1.33;1.20;;;25.30;36.60;;;;;;5011782;28;20038;-56
2022/07/18 03:15:47;;;;;;;1.60;1.30;;;25.30;36.60;;;;;;5011338;28;20750;-54
2022/07/18 03:18:13;;;;;;;1.85;1.10;;;25.30;36.60;;;;;;5012775;28;20064;-56
2022/07/18 03:20:39;;;;;;;1.45;1.08;;;25.30;36.60;;;;;;5011627;28;20034;-51
2022/07/18 03:23:06;;;;;;;1.90;1.40;;;25.30;36.60;;;;;;5010269;28;20111;-55
2022/07/18 03:25:32;;;;;;;1.50;1.30;;;25.30;36.70;;;;;;5011682;28;20025;-54
2022/07/18 03:27:58;;;;;;;1.73;1.30;;;25.20;36.60;;;;;;5012185;28;20041;-57
2022/07/18 03:30:24;;;;;;;1.25;1.08;;;25.20;36.60;;;;;;5012387;28;20034;-55
2022/07/18 03:32:50;;;;;;;1.48;1.23;;;25.30;36.70;;;;;;5011875;28;20050;-50
2022/07/18 03:35:16;;;;;;;1.88;1.42;;;25.20;36.70;;;;;;5011704;28;20026;-52
2022/07/18 03:37:42;;;;;;;2.00;1.20;;;25.20;36.60;;;;;;5011404;28;21695;-56
2022/07/18 03:40:09;;;;;;;1.95;1.40;;;25.20;36.60;;;;;;5011753;28;20113;-53
2022/07/18 03:42:38;;;;;;;1.35;1.25;;;25.20;36.60;;;;;;5011265;28;20026;-53
2022/07/18 03:45:05;;;;;;;1.25;1.15;;;25.20;36.60;;;;;;5011157;28;20037;-53
2022/07/18 03:47:31;;;;;;;1.88;1.30;;;25.20;36.60;;;;;;5009745;28;20465;-57
2022/07/18 03:49:57;;;;;;;1.60;1.20;;;25.20;36.70;;;;;;5011741;28;20046;-52
2022/07/18 03:52:23;;;;;;;1.40;1.15;;;25.20;36.70;;;;;;5010081;28;20424;-53
2022/07/18 03:54:49;;;;;;;1.98;1.13;;;25.20;36.70;;;;;;5011975;28;20022;-56
2022/07/18 03:57:14;;;;;;;1.60;1.25;;;25.20;36.70;;;;;;5010739;28;20472;-57
2022/07/18 03:59:40;;;;;;;1.60;1.30;;;25.20;36.70;;;;;;5010800;28;20124;-51
2022/07/18 04:02:06;;;;;;;1.73;1.20;;;25.20;36.70;;;;;;5010949;28;20322;-55
2022/07/18 04:04:32;;;;;;;1.63;1.10;;;25.20;36.70;;;;;;4996142;28;20033;-55
2022/07/18 04:06:59;;;;;;;1.48;1.13;;;25.20;36.70;;;;;;5010570;28;20069;-51
2022/07/18 04:09:28;;;;;;;1.23;0.90;;;25.10;36.70;;;;;;4999190;28;20413;-54
2022/07/18 04:11:55;;;;;;;1.70;1.40;;;25.20;36.70;;;;;;5011002;28;20109;-49
2022/07/18 04:14:22;;;;;;;1.70;1.10;;;25.10;36.60;;;;;;5011275;28;20417;-57
2022/07/18 04:16:48;;;;;;;1.77;1.20;;;25.20;36.80;;;;;;5011194;28;20038;-50
2022/07/18 04:19:14;;;;;;;2.00;1.23;;;25.20;36.70;;;;;;5011308;28;20022;-56
2022/07/18 04:21:40;;;;;;;1.40;1.20;;;25.20;36.70;;;;;;5009117;28;20452;-54
2022/07/18 04:24:06;;;;;;;1.50;1.13;;;25.20;36.70;;;;;;5010561;28;20468;-54
2022/07/18 04:26:32;;;;;;;2.17;1.30;;;25.10;36.60;;;;;;5010685;28;20879;-56
2022/07/18 04:28:57;;;;;;;1.02;0.93;;;25.10;36.60;;;;;;5010383;28;20483;-54
2022/07/18 04:31:23;;;;;;;1.40;1.10;;;25.10;36.60;;;;;;5011478;28;20025;-53
2022/07/18 04:33:49;;;;;;;1.45;1.17;;;25.20;36.70;;;;;;5010170;28;20046;-54
2022/07/18 04:36:15;;;;;;;1.88;1.05;;;25.10;36.60;;;;;;5010683;28;20030;-54
2022/07/18 04:38:41;;;;;;;1.25;0.93;;;25.10;36.60;;;;;;5009323;28;20034;-55
2022/07/18 04:41:07;;;;;;;1.75;1.17;;;25.20;36.80;;;;;;5011653;28;20512;-59
2022/07/18 04:43:33;;;;;;;1.50;1.20;;;25.20;36.80;;;;;;5007564;28;20380;-56
2022/07/18 04:45:58;;;;;;;1.35;1.08;;;25.20;36.80;;;;;;5011007;28;20026;-54
2022/07/18 04:48:24;;;;;;;1.77;1.17;;;25.20;36.80;;;;;;5009056;28;20544;-53
2022/07/18 04:50:50;;;;;;;2.08;1.20;;;25.20;36.80;;;;;;5010443;28;20473;-54
2022/07/18 04:53:17;;;;;;;1.52;1.13;;;25.20;36.90;;;;;;5010211;28;20117;-54
2022/07/18 04:55:42;;;;;;;1.30;1.10;;;25.20;36.90;;;;;;5011564;28;20338;-50
2022/07/18 04:58:08;;;;;;;1.52;1.25;;;25.20;36.90;;;;;;5007942;28;20077;-51
2022/07/18 05:00:34;;;;;;;1.40;1.30;;;25.20;37.00;;;;;;5009681;28;20499;-57
2022/07/18 05:03:00;;;;;;;1.58;1.10;;;25.20;36.90;;;;;;5009575;28;20365;-54
2022/07/18 05:05:28;;;;;;;1.10;1.00;;;25.20;37.00;;;;;;5010581;28;20022;-56
2022/07/18 05:07:54;;;;;;;1.67;1.10;;;25.20;37.00;;;;;;5009067;28;20174;-52
2022/07/18 05:10:22;;;;;;;1.38;1.00;;;25.20;37.00;;;;;;5010079;28;20022;-56
2022/07/18 05:12:50;;;;;;;2.10;1.50;;;25.20;37.00;;;;;;5014502;28;20042;-57
2022/07/18 05:15:18;;;;;;;1.48;1.10;;;25.20;37.10;;;;;;5015524;28;20041;-57
2022/07/18 05:17:47;;;;;;;1.38;1.08;;;25.20;37.10;;;;;;5017746;28;20468;-58
2022/07/18 05:20:16;;;;;;;2.20;1.20;;;25.20;37.10;;;;;;5014273;28;20030;-54
2022/07/18 05:22:42;;;;;;;3.00;1.48;;;25.20;37.20;;;;;;5013583;28;20026;-55
2022/07/18 05:25:09;;;;;;;1.58;1.20;;;25.20;37.20;;;;;;5010650;28;20045;-52
2022/07/18 05:27:35;;;;;;;3.38;1.30;;;25.20;37.20;;;;;;5014323;28;20036;-57
2022/07/18 05:30:04;;;;;;;2.55;1.50;;;25.20;37.20;;;;;;5014468;28;20022;-54
2022/07/18 05:32:30;;;;;;;2.63;1.45;;;25.20;37.20;;;;;;5012230;28;20065;-58
2022/07/18 05:34:56;;;;;;;2.92;1.83;;;25.30;37.30;;;;;;5012644;28;20088;-53
2022/07/18 05:37:22;;;;;;;2.17;1.40;;;25.30;37.90;;;;;;5013517;28;20034;-55
2022/07/18 05:39:50;;;;;;;3.20;2.03;;;25.30;37.30;;;;;;5012803;28;20073;-56
2022/07/18 05:42:18;;;;;;;4.13;1.80;;;25.30;37.30;;;;;;5018325;28;20116;-56
2022/07/18 05:44:46;;;;;;;2.80;1.67;;;25.30;37.40;;;;;;5013419;28;20033;-52
2022/07/18 05:47:13;;;;;;;2.67;1.80;;;25.30;37.30;;;;;;5013184;28;20032;-54
2022/07/18 05:49:40;;;;;;;2.55;1.30;;;25.30;37.40;;;;;;5016280;28;20052;-55
2022/07/18 05:52:07;;;;;;;3.63;1.88;;;25.30;37.40;;;;;;5013057;28;20022;-55
2022/07/18 05:54:33;;;;;;;4.07;2.05;;;25.30;37.40;;;;;;5010751;28;20044;-50
2022/07/18 05:56:59;;;;;;;2.78;1.20;;;25.20;38.00;;;;;;5013375;28;20030;-54
2022/07/18 05:59:24;;;;;;;3.08;1.80;;;25.30;37.50;;;;;;5016316;28;20025;-53
2022/07/18 06:01:50;;;;;;;3.17;1.50;;;25.30;37.50;;;;;;5017395;28;20461;-54
2022/07/18 06:04:16;;;;;;;2.35;1.45;;;25.30;37.50;;;;;;5016917;28;20076;-52
2022/07/18 06:06:43;;;;;;;2.53;1.35;;;25.30;37.50;;;;;;5013025;28;20412;-58
2022/07/18 06:09:08;;;;;;;1.92;1.30;;;25.30;37.60;;;;;;5013280;28;20022;-58
2022/07/18 06:11:35;;;;;;;1.92;1.50;;;25.30;37.60;;;;;;5014465;28;20329;-52
2022/07/18 06:14:02;;;;;;;2.75;1.38;;;25.30;37.60;;;;;;5017548;28;20041;-52
2022/07/18 06:16:29;;;;;;;2.10;1.40;;;25.30;37.60;;;;;;5017473;28;20038;-56
2022/07/18 06:18:56;;;;;;;1.52;1.00;;;25.30;37.70;;;;;;5014729;28;20033;-59
2022/07/18 06:21:22;;;;;;;2.38;1.38;;;25.30;37.70;;;;;;5006924;28;20034;-54
2022/07/18 06:23:48;;;;;;;3.03;1.98;;;25.30;37.70;;;;;;5011715;28;20022;-59
2022/07/18 06:26:14;;;;;;;3.92;1.50;;;25.30;37.70;;;;;;5022800;28;20034;-56
2022/07/18 06:28:41;;;;;;;2.45;1.30;;;25.30;37.80;;;;;;5014913;28;20065;-56
2022/07/18 06:31:07;;;;;;;1.60;1.30;;;25.30;37.80;;;;;;5017283;28;20116;-59
2022/07/18 06:33:34;;;;;;;1.70;1.30;;;25.40;37.90;;;;;;5017078;28;20071;-57
2022/07/18 06:36:00;;;;;;;1.98;1.40;;;25.40;37.90;;;;;;5017192;28;20032;-55
2022/07/18 06:38:26;;;;;;;2.78;1.50;;;25.40;37.90;;;;;;5015341;28;20070;-59
2022/07/18 06:40:52;;;;;;;2.67;1.50;;;25.40;37.90;;;;;;5016970;28;20434;-53
2022/07/18 06:43:21;;;;;;;1.92;1.50;;;25.40;37.90;;;;;;5016616;28;20030;-59
2022/07/18 06:45:48;;;;;;;2.03;1.40;;;25.40;37.90;;;;;;4997639;28;20418;-55
2022/07/18 06:48:20;;;;;;;1.58;1.40;;;25.50;37.90;;;;;;5014379;28;20022;-56
2022/07/18 06:50:46;;;;;;;2.85;1.50;;;25.50;37.90;;;;;;5016403;28;20044;-58
2022/07/18 06:53:11;;;;;;;1.95;1.30;;;25.50;37.90;;;;;;5014478;28;20053;-59
2022/07/18 06:55:37;;;;;;;2.20;1.40;;;25.50;37.90;;;;;;5016878;28;20088;-52
2022/07/18 06:58:03;;;;;;;2.15;1.15;;;25.50;37.90;;;;;;5016004;28;20029;-52
2022/07/18 07:00:29;;;;;;;3.22;1.48;;;25.50;37.80;;;;;;5018307;28;20108;-59
2022/07/18 07:02:55;;;;;;;2.70;1.30;;;25.60;37.90;;;;;;5015134;28;20495;-53
2022/07/18 07:05:21;;;;;;;1.90;1.25;;;25.60;37.80;;;;;;5016410;28;20041;-53
2022/07/18 07:07:48;;;;;;;2.53;1.42;;;25.60;37.80;;;;;;5011153;28;20357;-56
2022/07/18 07:10:15;;;;;;;2.53;1.30;;;25.60;37.70;;;;;;5016296;28;20049;-55
2022/07/18 07:12:49;;;;;;;2.28;1.38;;;25.60;37.70;;;;;;5011800;28;20369;-56
2022/07/18 07:15:18;;;;;;;3.22;1.33;;;25.60;37.70;;;;;;5016154;28;20117;-55
2022/07/18 07:17:44;;;;;;;1.83;1.13;;;25.60;37.70;;;;;;5016536;28;20337;-58
2022/07/18 07:20:10;;;;;;;1.77;1.10;;;25.70;37.80;;;;;;5012719;28;20029;-58
2022/07/18 07:22:50;;;;;;;2.53;1.20;;;25.70;37.70;;;;;;5014510;28;20091;-60
2022/07/18 07:25:17;;;;;;;2.25;1.40;;;25.70;37.70;;;;;;5016830;28;20072;-54
2022/07/18 07:27:43;;;;;;;1.67;0.90;;;25.70;37.70;;;;;;5016893;28;20467;-55
2022/07/18 07:30:10;;;;;;;3.08;1.45;;;25.70;37.70;;;;;;5015139;28;20122;-57
2022/07/18 07:32:37;;;;;;;2.65;1.10;;;25.70;37.70;;;;;;5015569;28;20132;-56
2022/07/18 07:35:06;;;;;;;1.63;1.00;;;25.70;37.70;;;;;;5012864;28;20065;-54
2022/07/18 07:37:33;;;;;;;1.38;1.00;;;25.80;37.70;;;;;;5015651;28;20104;-55
2022/07/18 07:39:59;;;;;;;1.30;0.95;;;25.70;37.60;;;;;;5013494;28;20034;-53
2022/07/18 07:42:25;;;;;;;1.48;0.90;;;25.80;37.70;;;;;;5009723;28;20037;-56
2022/07/18 07:44:51;;;;;;;2.40;1.20;;;25.80;37.70;;;;;;4996749;28;20026;-58
2022/07/18 07:47:17;;;;;;;1.90;0.90;;;25.80;37.80;;;;;;5001101;28;20469;-52
2022/07/18 07:49:43;;;;;;;2.35;1.00;;;25.80;37.70;;;;;;4996336;28;20124;-57
2022/07/18 07:52:10;;;;;;;0.93;0.73;;;25.80;37.80;;;;;;5012405;28;20044;-58
2022/07/18 07:54:36;;;;;;;1.85;1.05;;;25.80;37.80;;;;;;5015956;28;20046;-60
2022/07/18 07:57:01;;;;;;;1.83;1.00;;;25.80;37.80;;;;;;5014143;28;20048;-57
2022/07/18 07:59:27;;;;;;;1.30;0.80;;;25.80;37.80;;;;;;5008411;28;20040;-51
2022/07/18 08:01:53;;;;;;;2.55;1.17;;;25.80;37.80;;;;;;5015503;28;20030;-56
2022/07/18 08:04:19;;;;;;;1.45;0.77;;;25.80;37.90;;;;;;5014166;28;20092;-54
2022/07/18 08:06:45;;;;;;;1.60;0.80;;;25.80;37.90;;;;;;5015827;28;20357;-60
2022/07/18 08:09:10;;;;;;;1.15;0.73;;;25.80;37.90;;;;;;5014333;28;20448;-54
2022/07/18 08:11:36;;;;;;;1.73;0.90;;;25.80;37.90;;;;;;5015540;28;20334;-56
2022/07/18 08:14:02;;;;;;;1.42;0.85;;;25.80;37.90;;;;;;5013115;28;20228;-57
2022/07/18 08:16:28;;;;;;;1.73;0.85;;;25.80;37.90;;;;;;5015802;28;20071;-57
2022/07/18 08:18:54;;;;;;;1.85;0.93;;;25.80;37.90;;;;;;5015940;28;20030;-53
2022/07/18 08:21:19;;;;;;;1.52;0.90;;;25.80;37.90;;;;;;5015091;28;20303;-52
2022/07/18 08:23:47;;;;;;;1.27;0.80;;;25.80;37.90;;;;;;5015487;28;20049;-56
2022/07/18 08:26:14;;;;;;;0.68;0.65;;;25.80;37.90;;;;;;5015685;28;20038;-56
2022/07/18 08:28:40;;;;;;;1.30;0.80;;;25.80;37.90;;;;;;5013599;28;20384;-56
2022/07/18 08:31:05;;;;;;;1.70;0.80;;;25.80;37.90;;;;;;5013743;28;20072;-55
2022/07/18 08:33:31;;;;;;;2.70;0.98;;;25.80;37.90;;;;;;5014745;28;20092;-56
2022/07/18 08:35:57;;;;;;;2.13;0.90;;;25.80;37.90;;;;;;5014453;28;20032;-54
2022/07/18 08:38:23;;;;;;;2.65;0.93;;;25.80;37.90;;;;;;5014672;28;20049;-54
2022/07/18 08:40:52;;;;;;;1.65;0.80;;;25.80;37.90;;;;;;5015169;28;20084;-54
2022/07/18 08:43:18;;;;;;;1.55;0.77;;;25.80;37.90;;;;;;5015275;28;20464;-53
2022/07/18 08:45:45;;;;;;;1.92;1.13;;;25.80;37.90;;;;;;5014183;28;20026;-55
2022/07/18 08:48:17;;;;;;;1.77;0.90;;;25.80;37.90;;;;;;5014905;28;20026;-56
2022/07/18 08:50:44;;;;;;;1.15;0.70;;;25.90;38.00;;;;;;5015463;28;20104;-56
2022/07/18 08:53:12;;;;;;;1.25;0.73;;;25.80;37.90;;;;;;5014441;28;20037;-56
2022/07/18 08:55:37;;;;;;;0.82;0.60;;;25.80;37.90;;;;;;4995403;28;20030;-54
2022/07/18 08:58:03;;;;;;;1.42;0.80;;;25.80;37.90;;;;;;4995525;28;20385;-54
2022/07/18 09:00:29;;;;;;;1.33;0.70;;;25.80;37.90;;;;;;5005557;28;20121;-55
2022/07/18 09:03:03;;;;;;;1.00;0.50;;;25.80;37.90;;;;;;5014514;28;20037;-53
2022/07/18 09:05:30;;;;;;;1.15;0.70;;;25.90;38.00;;;;;;5015365;28;20045;-51
2022/07/18 09:08:17;;;;;;;1.42;0.80;;;25.80;37.90;;;;;;5014768;28;20103;-52
2022/07/18 09:10:54;;;;;;;0.93;0.63;;;25.90;38.00;;;;;;5014701;28;20052;-54
2022/07/18 09:13:38;;;;;;;1.13;0.80;;;25.80;38.00;;;;;;5014388;28;20457;-57
2022/07/18 09:16:14;;;;;;;1.40;0.70;;;25.80;38.00;;;;;;5014160;28;20044;-55
2022/07/18 09:18:43;;;;;;;1.83;0.85;;;25.80;38.00;;;;;;5014887;28;20411;-57
2022/07/18 09:21:15;;;;;;;1.15;0.60;;;25.90;38.10;;;;;;5014301;28;20030;-50
2022/07/18 09:23:43;;;;;;;0.98;0.85;;;25.80;38.00;;;;;;5015094;28;20108;-53
2022/07/18 09:26:11;;;;;;;1.00;0.50;;;25.90;38.00;;;;;;5014092;28;20361;-56
2022/07/18 09:28:53;;;;;;;1.25;0.88;;;25.90;38.00;;;;;;5014379;28;20034;-57
2022/07/18 09:31:21;;;;;;;1.00;0.73;;;25.90;37.90;;;;;;5014955;28;20037;-53
2022/07/18 09:33:55;;;;;;;1.23;0.70;;;25.90;37.90;;;;;;5014469;28;20121;-54
2022/07/18 09:36:21;;;;;;;1.83;0.82;;;25.90;37.90;;;;;;5014939;28;20045;-58
2022/07/18 09:38:48;;;;;;;1.45;0.60;;;25.90;37.90;;;;;;5014233;28;20036;-55
2022/07/18 09:41:14;;;;;;;1.13;0.60;;;25.90;37.90;;;;;;5014755;28;20100;-54
2022/07/18 09:43:40;;;;;;;1.00;0.60;;;25.90;37.80;;;;;;5003661;28;20030;-57
2022/07/18 09:46:07;;;;;;;1.40;0.80;;;25.90;37.80;;;;;;4998179;28;20409;-56
2022/07/18 09:48:33;;;;;;;0.98;0.65;;;25.90;37.80;;;;;;5014025;28;20449;-56
2022/07/18 09:51:07;;;;;;;1.02;0.60;;;25.90;37.80;;;;;;5014138;28;20029;-57
2022/07/18 09:53:35;;;;;;;1.23;0.47;;;25.90;37.70;;;;;;5014145;28;20372;-54
2022/07/18 09:56:06;;;;;;;1.17;0.70;;;25.90;37.70;;;;;;5014409;28;20080;-55
2022/07/18 09:58:37;;;;;;;1.17;0.65;;;25.90;37.90;;;;;;5015197;28;20042;-57
2022/07/18 10:01:05;;;;;;;1.00;0.70;;;25.90;37.60;;;;;;5017527;28;20229;-57
2022/07/18 10:03:32;;;;;;;0.75;0.57;;;25.90;37.60;;;;;;5018152;28;20048;-55
2022/07/18 10:05:59;;;;;;;0.55;0.50;;;25.90;37.60;;;;;;5017907;28;20062;-51
2022/07/18 10:08:30;;;;;;;1.52;0.63;;;26.00;37.60;;;;;;5018360;28;20025;-58
2022/07/18 10:11:01;;;;;;;1.15;0.70;;;25.90;37.50;;;;;;5016801;28;20342;-57
2022/07/18 10:13:29;;;;;;;1.02;0.60;;;26.00;37.60;;;;;;5017442;28;20077;-51
2022/07/18 10:15:56;;;;;;;0.63;0.60;;;25.90;37.50;;;;;;5017391;28;20026;-51
2022/07/18 10:18:24;;;;;;;0.88;0.60;;;26.00;37.50;;;;;;5017749;28;20021;-56
2022/07/18 10:20:58;;;;;;;0.85;0.63;;;26.00;37.50;;;;;;5017219;28;20030;-52
2022/07/18 10:23:38;;;;;;;1.70;0.77;;;26.00;37.50;;;;;;5014041;28;20038;-53
2022/07/18 10:26:11;;;;;;;0.88;0.55;;;26.00;38.00;;;;;;5015370;28;20341;-55
2022/07/18 10:29:00;;;;;;;0.90;0.60;;;26.00;37.30;;;;;;5015593;28;20034;-56
2022/07/18 10:31:36;;;;;;;1.58;0.70;;;26.00;37.20;;;;;;5013719;28;20357;-55
2022/07/18 10:34:09;;;;;;;0.73;0.40;;;26.00;37.20;;;;;;5016458;28;20362;-51
2022/07/18 10:36:44;;;;;;;0.70;0.70;;;26.00;37.30;;;;;;5016423;28;20093;-54
2022/07/18 10:39:19;;;;;;;1.27;0.90;;;26.00;37.40;;;;;;5015084;28;20411;-59
2022/07/18 10:41:51;;;;;;;0.90;0.60;;;26.00;37.40;;;;;;5017570;28;20034;-55
2022/07/18 10:44:29;;;;;;;3.10;0.88;;;26.00;37.40;;;;;;5015563;28;20033;-54
2022/07/18 10:47:11;;;;;;;1.25;0.60;;;26.10;37.50;;;;;;5017388;28;20032;-58
2022/07/18 10:49:49;;;;;;;1.85;0.57;;;26.10;37.50;;;;;;5015541;28;20065;-59
2022/07/18 10:52:27;;;;;;;1.83;0.73;;;26.10;37.50;;;;;;5017460;28;20061;-56
2022/07/18 10:55:04;;;;;;;0.90;0.60;;;26.10;37.50;;;;;;5017223;28;20077;-52
2022/07/18 10:57:35;;;;;;;1.45;0.57;;;26.20;37.60;;;;;;5016306;28;20129;-61
2022/07/18 11:00:15;;;;;;;1.15;0.70;;;26.20;37.60;;;;;;5012378;28;20042;-54
2022/07/18 11:03:04;;;;;;;1.13;0.68;;;26.20;38.20;;;;;;5016396;28;20516;-56
2022/07/18 11:05:30;;;;;;;1.42;0.50;;;26.20;37.60;;;;;;5000753;28;20038;-55
2022/07/18 11:08:01;;;;;;;1.73;0.70;;;26.20;37.60;;;;;;4997290;28;20026;-58
2022/07/18 11:13:29;;;;;;;1.58;0.57;;;26.30;37.70;;;;;;5015861;28;20068;-58
2022/07/18 11:16:15;;;;;;;1.13;0.75;;;26.30;37.70;;;;;;5015131;28;20049;-57
2022/07/18 11:18:40;;;;;;;0.55;0.50;;;26.30;37.70;;;;;;5001497;28;20029;-56
2022/07/18 11:21:22;;;;;;;1.30;0.80;;;26.30;37.70;;;;;;5012933;28;20038;-60
2022/07/18 11:23:51;;;;;;;1.85;0.70;;;26.40;37.70;;;;;;5014048;28;20088;-58
2022/07/18 11:26:22;;;;;;;1.33;0.60;;;26.40;37.70;;;;;;5015132;28;20040;-55
2022/07/18 11:28:58;;;;;;;1.00;0.70;;;26.40;37.60;;;;;;5013306;28;20335;-56
2022/07/18 11:31:24;;;;;;;0.88;0.45;;;26.50;37.70;;;;;;5016476;28;20373;-60
2022/07/18 11:33:50;;;;;;;0.88;0.60;;;26.50;37.70;;;;;;5016635;28;20044;-58
2022/07/18 11:36:18;;;;;;;2.40;0.70;;;26.40;37.60;;;;;;5016300;28;20449;-58
2022/07/18 11:38:56;;;;;;;1.15;0.70;;;26.50;37.70;;;;;;5014359;28;20076;-56
2022/07/18 11:41:22;;;;;;;1.38;0.70;;;26.50;37.70;;;;;;5015824;28;20041;-54
2022/07/18 11:43:52;;;;;;;1.10;0.60;;;26.60;37.70;;;;;;5015651;28;20045;-56
2022/07/18 11:46:20;;;;;;;0.93;0.75;;;26.60;37.70;;;;;;5013392;28;20044;-58
2022/07/18 11:48:56;;;;;;;1.08;0.70;;;26.60;37.70;;;;;;5015458;28;20046;-54
2022/07/18 11:51:23;;;;;;;0.70;0.60;;;26.60;38.30;;;;;;5016001;28;20033;-58
2022/07/18 11:53:53;;;;;;;0.68;0.60;;;26.60;37.70;;;;;;5016087;28;20042;-56
2022/07/18 11:56:21;;;;;;;0.70;0.50;;;26.60;37.60;;;;;;5012707;28;20030;-58
2022/07/18 11:58:49;;;;;;;0.88;0.70;;;26.60;37.60;;;;;;5014265;28;20056;-58
2022/07/18 12:01:15;;;;;;;0.95;0.60;;;26.70;37.60;;;;;;5014309;28;20037;-50
2022/07/18 12:03:44;;;;;;;0.90;0.60;;;26.70;37.70;;;;;;5014471;28;20030;-57
2022/07/18 12:06:21;;;;;;;0.82;0.40;;;26.70;37.60;;;;;;5015500;28;20129;-55
2022/07/18 12:08:49;;;;;;;0.70;0.57;;;26.70;37.60;;;;;;5015703;28;20041;-51
2022/07/18 12:11:29;;;;;;;1.70;0.70;;;26.70;37.60;;;;;;5013781;28;20053;-56
2022/07/18 12:14:01;;;;;;;0.93;0.50;;;26.70;37.50;;;;;;5013822;28;20042;-53
2022/07/18 12:16:31;;;;;;;0.95;0.40;;;26.70;37.50;;;;;;5015623;28;20080;-53
2022/07/18 12:19:07;;;;;;;0.93;0.70;;;26.80;37.60;;;;;;5015424;28;20029;-58
2022/07/18 12:21:54;;;;;;;1.10;0.70;;;26.80;37.50;;;;;;5014441;28;20453;-61
2022/07/18 12:24:25;;;;;;;0.73;0.50;;;26.80;37.60;;;;;;5012262;28;20030;-55
2022/07/18 12:27:18;;;;;;;0.95;0.85;;;26.80;37.60;;;;;;5011145;28;20029;-58
2022/07/18 12:30:08;;;;;;;0.77;0.50;;;26.80;37.60;;;;;;5014410;28;20127;-55
2022/07/18 12:32:52;;;;;;;1.10;0.60;;;26.80;37.50;;;;;;5011698;28;20049;-57
2022/07/18 12:35:21;;;;;;;0.70;0.57;;;26.90;37.60;;;;;;5015753;28;20037;-54
2022/07/18 12:38:04;;;;;;;1.00;0.65;;;26.90;37.60;;;;;;5011928;28;20041;-54
2022/07/18 12:40:52;;;;;;;0.70;0.60;;;26.90;37.60;;;;;;5013769;28;20053;-57
2022/07/18 12:43:24;;;;;;;0.93;0.70;;;26.90;37.50;;;;;;5013464;28;20022;-57
2022/07/18 12:45:51;;;;;;;1.42;0.85;;;26.90;37.50;;;;;;5015059;28;20062;-57
2022/07/18 12:48:16;;;;;;;2.05;0.90;;;26.90;37.40;;;;;;5013983;28;20022;-58
2022/07/18 12:50:44;;;;;;;1.20;0.70;;;27.00;37.40;;;;;;5014619;28;20209;-54
2022/07/18 12:53:11;;;;;;;1.23;0.60;;;27.00;37.40;;;;;;5013084;28;20474;-59
2022/07/18 12:55:37;;;;;;;1.20;0.90;;;27.00;37.40;;;;;;5010759;28;20044;-52
2022/07/18 12:58:05;;;;;;;1.05;0.60;;;27.00;37.30;;;;;;5010887;28;20041;-56